sensor_id;sensor_type;location;lat;lon;timestamp;pressure;altitude;pressure_sealevel;temperature;humidity
73681;BME280;61979;53.536;8.082;2022-10-16T00:06:27;100951.34;;;12.96;89.35
73681;BME280;61979;53.536;8.082;2022-10-16T00:16:28;100964.56;;;13.14;88.12
73681;BME280;61979;53.536;8.082;2022-10-16T00:26:29;100970.69;;;13.07;88.68
73681;BME280;61979;53.536;8.082;2022-10-16T00:36:30;100968.97;;;13.09;88.31
73681;BME280;61979;53.536;8.082;2022-10-16T00:46:36;100974.97;;;13.08;88.19
73681;BME280;61979;53.536;8.082;2022-10-16T00:56:37;100968.53;;;12.86;89.06
73681;BME280;61979;53.536;8.082;2022-10-16T01:06:43;100971.22;;;12.80;89.49
73681;BME280;61979;53.536;8.082;2022-10-16T01:16:55;100967.91;;;12.76;89.52
73681;BME280;61979;53.536;8.082;2022-10-16T01:37:09;100973.69;;;12.85;88.84
73681;BME280;61979;53.536;8.082;2022-10-16T01:47:11;100983.56;;;12.59;89.80
73681;BME280;61979;53.536;8.082;2022-10-16T01:57:13;100984.19;;;12.72;89.66
73681;BME280;61979;53.536;8.082;2022-10-16T02:07:14;100970.84;;;12.55;90.05
73681;BME280;61979;53.536;8.082;2022-10-16T02:17:16;100973.47;;;12.52;90.29
73681;BME280;61979;53.536;8.082;2022-10-16T02:37:25;100987.88;;;12.57;89.90
73681;BME280;61979;53.536;8.082;2022-10-16T02:47:27;100983.47;;;12.64;89.75
73681;BME280;61979;53.536;8.082;2022-10-16T02:57:27;100973.06;;;12.73;89.77
73681;BME280;61979;53.536;8.082;2022-10-16T03:07:27;100972.88;;;12.81;89.54
73681;BME280;61979;53.536;8.082;2022-10-16T03:17:27;100977.09;;;12.84;88.95
73681;BME280;61979;53.536;8.082;2022-10-16T03:27:27;100984.63;;;12.94;88.81
73681;BME280;61979;53.536;8.082;2022-10-16T03:37:28;100999.91;;;12.97;88.89
73681;BME280;61979;53.536;8.082;2022-10-16T03:47:28;100999.78;;;13.03;88.45
73681;BME280;61979;53.536;8.082;2022-10-16T03:57:28;101015.03;;;13.09;87.55
73681;BME280;61979;53.536;8.082;2022-10-16T04:07:28;101029.44;;;13.12;87.08
73681;BME280;61979;53.536;8.082;2022-10-16T04:17:28;101038.63;;;13.23;86.54
73681;BME280;61979;53.536;8.082;2022-10-16T04:27:29;101024.28;;;13.15;87.20
73681;BME280;61979;53.536;8.082;2022-10-16T04:37:31;101025.88;;;13.20;86.85
73681;BME280;61979;53.536;8.082;2022-10-16T04:47:31;101031.97;;;13.16;86.43
73681;BME280;61979;53.536;8.082;2022-10-16T04:57:31;101035.34;;;13.15;87.07
73681;BME280;61979;53.536;8.082;2022-10-16T05:07:33;101050.41;;;13.30;87.19
73681;BME280;61979;53.536;8.082;2022-10-16T05:17:33;101060.44;;;13.42;86.85
73681;BME280;61979;53.536;8.082;2022-10-16T05:27:33;101055.00;;;13.15;87.81
73681;BME280;61979;53.536;8.082;2022-10-16T05:37:33;101071.97;;;13.20;87.34
73681;BME280;61979;53.536;8.082;2022-10-16T05:47:34;101086.63;;;13.12;87.43
73681;BME280;61979;53.536;8.082;2022-10-16T05:57:37;101081.84;;;12.94;87.79
73681;BME280;61979;53.536;8.082;2022-10-16T06:07:37;101105.50;;;13.05;87.70
73681;BME280;61979;53.536;8.082;2022-10-16T06:17:37;101131.00;;;13.11;87.89
73681;BME280;61979;53.536;8.082;2022-10-16T06:27:39;101126.84;;;13.06;88.84
73681;BME280;61979;53.536;8.082;2022-10-16T06:37:39;101124.91;;;13.17;89.33
73681;BME280;61979;53.536;8.082;2022-10-16T06:47:39;101140.75;;;13.37;88.83
73681;BME280;61979;53.536;8.082;2022-10-16T06:57:39;101143.00;;;13.52;89.10
73681;BME280;61979;53.536;8.082;2022-10-16T07:07:40;101160.97;;;13.91;88.18
73681;BME280;61979;53.536;8.082;2022-10-16T07:17:40;101173.88;;;13.88;87.60
73681;BME280;61979;53.536;8.082;2022-10-16T07:27:40;101184.50;;;14.11;87.79
73681;BME280;61979;53.536;8.082;2022-10-16T07:37:43;101205.72;;;14.19;87.49
73681;BME280;61979;53.536;8.082;2022-10-16T07:47:44;101214.63;;;14.41;87.38
73681;BME280;61979;53.536;8.082;2022-10-16T07:57:44;101224.16;;;15.08;85.30
73681;BME280;61979;53.536;8.082;2022-10-16T08:07:50;101237.47;;;15.23;84.27
73681;BME280;61979;53.536;8.082;2022-10-16T08:17:54;101248.91;;;15.45;82.77
73681;BME280;61979;53.536;8.082;2022-10-16T08:27:54;101257.50;;;15.44;82.10
73681;BME280;61979;53.536;8.082;2022-10-16T08:37:54;101266.09;;;16.06;80.46
73681;BME280;61979;53.536;8.082;2022-10-16T08:48:00;101280.72;;;16.34;78.67
73681;BME280;61979;53.536;8.082;2022-10-16T08:58:10;101297.63;;;16.42;79.25
73681;BME280;61979;53.536;8.082;2022-10-16T09:08:21;101318.09;;;16.76;77.28
73681;BME280;61979;53.536;8.082;2022-10-16T09:18:37;101326.16;;;16.93;74.87
73681;BME280;61979;53.536;8.082;2022-10-16T09:28:40;101331.41;;;17.16;72.71
73681;BME280;61979;53.536;8.082;2022-10-16T09:38:41;101337.69;;;17.35;72.11
73681;BME280;61979;53.536;8.082;2022-10-16T09:48:44;101361.97;;;17.81;71.26
73681;BME280;61979;53.536;8.082;2022-10-16T09:58:54;101379.25;;;18.02;70.56
73681;BME280;61979;53.536;8.082;2022-10-16T10:08:59;101390.00;;;17.90;69.99
73681;BME280;61979;53.536;8.082;2022-10-16T10:19:00;101395.38;;;17.58;68.67
73681;BME280;61979;53.536;8.082;2022-10-16T10:29:17;101413.59;;;17.52;70.21
73681;BME280;61979;53.536;8.082;2022-10-16T10:39:24;101427.25;;;17.56;68.74
73681;BME280;61979;53.536;8.082;2022-10-16T10:59:54;101457.50;;;18.29;65.07
73681;BME280;61979;53.536;8.082;2022-10-16T11:10:02;101462.50;;;18.58;64.99
73681;BME280;61979;53.536;8.082;2022-10-16T11:20:23;101479.69;;;18.83;61.92
73681;BME280;61979;53.536;8.082;2022-10-16T11:30:25;101489.19;;;18.06;65.28
73681;BME280;61979;53.536;8.082;2022-10-16T11:40:31;101498.69;;;18.06;63.55
73681;BME280;61979;53.536;8.082;2022-10-16T11:50:53;101509.50;;;17.91;63.44
73681;BME280;61979;53.536;8.082;2022-10-16T12:21:29;101527.16;;;19.27;59.26
73681;BME280;61979;53.536;8.082;2022-10-16T12:31:36;101533.41;;;19.21;58.65
73681;BME280;61979;53.536;8.082;2022-10-16T12:41:37;101545.25;;;18.55;57.75
73681;BME280;61979;53.536;8.082;2022-10-16T12:51:40;101571.63;;;18.89;58.92
73681;BME280;61979;53.536;8.082;2022-10-16T13:01:53;101590.81;;;18.82;59.09
73681;BME280;61979;53.536;8.082;2022-10-16T13:32:24;101629.59;;;18.27;60.77
73681;BME280;61979;53.536;8.082;2022-10-16T13:42:28;101635.50;;;18.32;58.93
73681;BME280;61979;53.536;8.082;2022-10-16T13:52:29;101645.91;;;18.29;60.77
73681;BME280;61979;53.536;8.082;2022-10-16T14:02:36;101670.94;;;17.98;62.13
73681;BME280;61979;53.536;8.082;2022-10-16T14:12:37;101669.97;;;17.73;61.97
73681;BME280;61979;53.536;8.082;2022-10-16T14:22:40;101687.34;;;17.95;60.50
73681;BME280;61979;53.536;8.082;2022-10-16T14:32:41;101707.41;;;18.44;60.45
73681;BME280;61979;53.536;8.082;2022-10-16T14:42:42;101712.97;;;18.59;60.18
73681;BME280;61979;53.536;8.082;2022-10-16T14:52:44;101709.50;;;18.02;59.70
73681;BME280;61979;53.536;8.082;2022-10-16T15:02:44;101728.06;;;17.86;62.30
73681;BME280;61979;53.536;8.082;2022-10-16T15:12:45;101743.94;;;17.71;62.81
73681;BME280;61979;53.536;8.082;2022-10-16T15:22:45;101763.53;;;17.46;62.53
73681;BME280;61979;53.536;8.082;2022-10-16T15:32:45;101779.53;;;17.58;64.14
73681;BME280;61979;53.536;8.082;2022-10-16T15:42:45;101772.06;;;17.13;64.99
73681;BME280;61979;53.536;8.082;2022-10-16T15:52:46;101779.31;;;16.97;66.11
73681;BME280;61979;53.536;8.082;2022-10-16T16:02:50;101790.78;;;17.21;66.89
73681;BME280;61979;53.536;8.082;2022-10-16T16:12:51;101805.56;;;17.13;66.55
73681;BME280;61979;53.536;8.082;2022-10-16T16:22:54;101819.75;;;16.94;67.54
73681;BME280;61979;53.536;8.082;2022-10-16T16:32:54;101830.09;;;16.54;68.65
73681;BME280;61979;53.536;8.082;2022-10-16T16:42:54;101847.16;;;16.16;70.87
73681;BME280;61979;53.536;8.082;2022-10-16T16:52:54;101861.19;;;15.99;71.08
73681;BME280;61979;53.536;8.082;2022-10-16T17:02:54;101877.31;;;15.58;72.40
73681;BME280;61979;53.536;8.082;2022-10-16T17:12:55;101890.25;;;15.54;72.00
73681;BME280;61979;53.536;8.082;2022-10-16T17:22:55;101911.22;;;15.25;73.65
73681;BME280;61979;53.536;8.082;2022-10-16T17:32:56;101917.28;;;15.21;73.07
73681;BME280;61979;53.536;8.082;2022-10-16T17:42:56;101934.66;;;15.01;73.57
73681;BME280;61979;53.536;8.082;2022-10-16T17:52:56;101945.38;;;14.65;74.37
73681;BME280;61979;53.536;8.082;2022-10-16T18:02:56;101962.63;;;14.54;74.57
73681;BME280;61979;53.536;8.082;2022-10-16T18:12:57;101963.53;;;14.47;74.71
73681;BME280;61979;53.536;8.082;2022-10-16T18:22:57;101973.03;;;14.39;75.43
73681;BME280;61979;53.536;8.082;2022-10-16T18:32:58;101970.56;;;14.30;75.86
73681;BME280;61979;53.536;8.082;2022-10-16T18:42:58;102009.13;;;14.14;76.18
73681;BME280;61979;53.536;8.082;2022-10-16T18:52:58;102005.81;;;14.01;76.45
73681;BME280;61979;53.536;8.082;2022-10-16T19:02:58;102011.78;;;14.00;76.33
73681;BME280;61979;53.536;8.082;2022-10-16T19:12:58;102010.28;;;13.75;78.71
73681;BME280;61979;53.536;8.082;2022-10-16T19:22:59;101996.56;;;13.85;77.73
73681;BME280;61979;53.536;8.082;2022-10-16T19:33:02;102015.28;;;13.90;77.22
73681;BME280;61979;53.536;8.082;2022-10-16T19:43:04;102025.63;;;13.81;77.88
73681;BME280;61979;53.536;8.082;2022-10-16T19:53:05;102024.75;;;13.82;78.15
73681;BME280;61979;53.536;8.082;2022-10-16T20:03:07;102023.00;;;13.84;78.04
73681;BME280;61979;53.536;8.082;2022-10-16T20:13:07;102004.38;;;13.64;79.43
73681;BME280;61979;53.536;8.082;2022-10-16T20:23:08;102035.94;;;13.72;80.05
73681;BME280;61979;53.536;8.082;2022-10-16T20:33:08;102065.06;;;13.59;80.67
73681;BME280;61979;53.536;8.082;2022-10-16T20:43:13;102077.03;;;13.54;80.33
73681;BME280;61979;53.536;8.082;2022-10-16T20:53:14;102089.81;;;13.57;80.06
73681;BME280;61979;53.536;8.082;2022-10-16T21:03:14;102081.34;;;13.43;81.27
73681;BME280;61979;53.536;8.082;2022-10-16T21:13:14;102072.72;;;13.56;81.57
73681;BME280;61979;53.536;8.082;2022-10-16T21:23:14;102085.53;;;13.56;80.82
73681;BME280;61979;53.536;8.082;2022-10-16T21:33:14;102065.09;;;13.46;82.81
73681;BME280;61979;53.536;8.082;2022-10-16T21:43:15;102046.25;;;13.59;82.08
73681;BME280;61979;53.536;8.082;2022-10-16T21:53:15;102046.25;;;13.57;81.79
73681;BME280;61979;53.536;8.082;2022-10-16T22:03:15;102044.69;;;13.35;84.25
73681;BME280;61979;53.536;8.082;2022-10-16T22:13:15;102011.50;;;13.05;84.68
73681;BME280;61979;53.536;8.082;2022-10-16T22:23:15;102016.34;;;13.62;82.14
73681;BME280;61979;53.536;8.082;2022-10-16T22:33:16;102025.16;;;12.89;86.21
73681;BME280;61979;53.536;8.082;2022-10-16T22:43:16;102013.16;;;13.15;85.49
73681;BME280;61979;53.536;8.082;2022-10-16T22:53:16;101996.97;;;13.13;85.54
73681;BME280;61979;53.536;8.082;2022-10-16T23:03:16;102006.31;;;13.23;85.54
73681;BME280;61979;53.536;8.082;2022-10-16T23:13:16;102001.19;;;13.25;85.70
73681;BME280;61979;53.536;8.082;2022-10-16T23:23:17;102007.88;;;13.51;83.91
73681;BME280;61979;53.536;8.082;2022-10-16T23:33:17;102024.88;;;13.63;84.19
73681;BME280;61979;53.536;8.082;2022-10-16T23:43:17;102039.34;;;13.70;83.34
73681;BME280;61979;53.536;8.082;2022-10-16T23:53:17;102013.72;;;13.73;83.51
